createdAt,value
2023-01-13T00:00:16.563Z,1.13
2023-01-13T00:02:43.674Z,1.13
2023-01-13T00:05:11.544Z,1.17
2023-01-13T00:07:40.248Z,1.13
2023-01-13T00:10:10.204Z,0.90
2023-01-13T00:12:41.034Z,1.23
2023-01-13T00:15:10.190Z,1.10
2023-01-13T00:17:39.163Z,1.30
2023-01-13T00:20:07.924Z,1.37
2023-01-13T00:22:35.470Z,0.90
2023-01-13T00:25:04.269Z,1.20
2023-01-13T00:27:31.807Z,1.00
2023-01-13T00:30:00.724Z,0.90
2023-01-13T00:32:28.312Z,0.80
2023-01-13T00:34:55.641Z,1.00
2023-01-13T00:37:23.565Z,1.30
2023-01-13T00:39:51.466Z,1.03
2023-01-13T00:42:37.803Z,1.10
2023-01-13T00:45:07.526Z,1.00
2023-01-13T00:47:34.615Z,1.23
2023-01-13T00:50:01.616Z,1.07
2023-01-13T00:52:28.663Z,1.07
2023-01-13T00:54:55.669Z,1.63
2023-01-13T00:57:22.707Z,1.23
2023-01-13T00:59:49.818Z,1.90
2023-01-13T01:02:18.272Z,1.80
2023-01-13T01:04:45.389Z,1.67
2023-01-13T01:07:13.049Z,1.73
2023-01-13T01:09:40.144Z,1.83
2023-01-13T01:12:07.596Z,2.00
2023-01-13T01:14:34.743Z,1.57
2023-01-13T01:17:01.873Z,2.03
2023-01-13T01:19:30.300Z,2.30
2023-01-13T01:21:57.315Z,2.00
2023-01-13T01:24:24.407Z,2.27
2023-01-13T01:26:51.516Z,2.10
2023-01-13T01:29:18.563Z,2.13
2023-01-13T01:31:45.661Z,1.97
2023-01-13T01:34:12.698Z,1.67
2023-01-13T01:36:41.111Z,1.90
2023-01-13T01:39:08.277Z,2.47
2023-01-13T01:41:36.697Z,1.93
2023-01-13T01:44:28.577Z,2.57
2023-01-13T01:46:57.744Z,2.10
2023-01-13T01:49:32.778Z,2.87
2023-01-13T01:52:08.510Z,2.80
2023-01-13T01:54:44.019Z,2.43
2023-01-13T01:57:18.678Z,2.87
2023-01-13T01:59:46.388Z,2.80
2023-01-13T02:02:15.207Z,2.87
2023-01-13T02:04:51.218Z,3.00
2023-01-13T02:07:20.441Z,3.13
2023-01-13T02:09:48.784Z,2.67
2023-01-13T02:12:34.632Z,2.93
2023-01-13T02:15:07.526Z,3.10
2023-01-13T02:18:05.870Z,3.27
2023-01-13T02:21:27.751Z,3.10
2023-01-13T02:24:54.306Z,3.27
2023-01-13T02:27:47.950Z,3.27
2023-01-13T02:30:51.137Z,2.93
2023-01-13T02:33:37.189Z,3.13
2023-01-13T02:36:14.933Z,3.10
2023-01-13T02:38:51.481Z,3.67
2023-01-13T02:41:47.436Z,2.90
2023-01-13T02:44:23.714Z,3.30
2023-01-13T02:46:56.972Z,2.80
2023-01-13T02:49:35.863Z,3.27
2023-01-13T02:52:11.082Z,3.23
2023-01-13T02:54:44.139Z,2.93
2023-01-13T02:57:15.580Z,3.70
2023-01-13T02:59:42.900Z,3.10
2023-01-13T03:02:16.629Z,3.63
2023-01-13T03:04:54.880Z,3.13
2023-01-13T03:07:57.840Z,3.83
2023-01-13T03:10:47.711Z,4.10
2023-01-13T03:13:38.365Z,3.47
2023-01-13T03:16:18.008Z,3.40
2023-01-13T03:18:59.611Z,3.27
2023-01-13T03:21:39.179Z,3.70
2023-01-13T03:24:13.701Z,3.50
2023-01-13T03:26:48.896Z,3.50
2023-01-13T03:29:22.162Z,3.80
2023-01-13T03:32:01.230Z,3.23
2023-01-13T03:34:37.061Z,3.73
2023-01-13T03:37:09.391Z,3.77
2023-01-13T03:39:43.808Z,3.73
2023-01-13T03:42:18.499Z,3.50
2023-01-13T03:44:53.386Z,3.97
2023-01-13T03:47:30.571Z,3.97
2023-01-13T03:50:03.612Z,3.63
2023-01-13T03:52:36.250Z,4.17
2023-01-13T03:55:10.501Z,3.53
2023-01-13T03:57:52.746Z,3.73
2023-01-13T04:00:26.084Z,3.33
2023-01-13T04:03:00.563Z,4.13
2023-01-13T04:05:30.060Z,4.97
2023-01-13T04:08:12.279Z,4.10
2023-01-13T04:10:47.349Z,3.93
2023-01-13T04:13:21.245Z,3.90
2023-01-13T04:15:50.297Z,3.43
2023-01-13T04:18:21.524Z,4.60
2023-01-13T04:20:52.867Z,4.63
2023-01-13T04:23:21.402Z,4.10
2023-01-13T04:25:49.878Z,4.40
2023-01-13T04:28:18.081Z,3.90
2023-01-13T04:30:45.783Z,4.30
2023-01-13T04:33:15.676Z,4.70
2023-01-13T04:35:44.446Z,4.03
2023-01-13T04:38:14.755Z,4.07
2023-01-13T04:40:42.773Z,4.20
2023-01-13T04:43:11.280Z,4.10
2023-01-13T04:45:38.340Z,3.70
2023-01-13T04:48:06.319Z,4.27
2023-01-13T04:50:33.552Z,4.63
2023-01-13T04:53:01.183Z,4.47
2023-01-13T04:55:29.800Z,4.50
2023-01-13T04:58:03.214Z,4.27
2023-01-13T05:00:30.318Z,4.20
2023-01-13T05:02:57.520Z,4.47
2023-01-13T05:05:24.455Z,4.20
2023-01-13T05:07:51.357Z,3.97
2023-01-13T05:10:18.410Z,4.77
2023-01-13T05:13:05.856Z,4.63
2023-01-13T05:15:51.313Z,5.47
2023-01-13T05:18:19.142Z,4.30
2023-01-13T05:20:46.391Z,4.83
2023-01-13T05:23:31.956Z,4.27
2023-01-13T05:25:58.872Z,3.47
2023-01-13T05:28:32.118Z,4.67
2023-01-13T05:30:59.506Z,4.63
2023-01-13T05:33:26.702Z,5.47
2023-01-13T05:35:53.563Z,4.77
2023-01-13T05:38:20.592Z,3.83
2023-01-13T05:41:05.921Z,4.43
2023-01-13T05:43:34.799Z,4.50
2023-01-13T05:46:05.439Z,4.93
2023-01-13T05:48:35.255Z,3.93
2023-01-13T05:51:04.803Z,4.40
2023-01-13T05:53:32.678Z,3.90
2023-01-13T05:56:00.341Z,4.27
2023-01-13T05:58:28.173Z,3.33
2023-01-13T06:01:02.208Z,3.73
2023-01-13T06:03:29.489Z,4.17
2023-01-13T06:06:01.517Z,4.60
2023-01-13T06:08:29.816Z,4.67
2023-01-13T06:10:56.888Z,3.80
2023-01-13T06:13:25.323Z,4.33
2023-01-13T06:15:55.863Z,4.87
2023-01-13T06:18:24.217Z,4.60
2023-01-13T06:20:51.129Z,4.17
2023-01-13T06:23:17.988Z,4.83
2023-01-13T06:25:53.216Z,5.03
2023-01-13T06:28:20.123Z,4.70
2023-01-13T06:30:51.640Z,4.10
2023-01-13T06:33:26.531Z,4.37
2023-01-13T06:36:00.731Z,4.67
2023-01-13T06:38:33.675Z,4.60
2023-01-13T06:41:00.715Z,5.20
2023-01-13T06:43:27.711Z,4.40
2023-01-13T06:45:56.233Z,4.87
2023-01-13T06:48:28.879Z,3.83
2023-01-13T06:50:55.737Z,4.10
2023-01-13T06:53:22.672Z,4.50
2023-01-13T06:55:49.746Z,4.50
2023-01-13T06:58:17.046Z,4.67
2023-01-13T07:00:44.320Z,5.00
2023-01-13T07:03:13.529Z,4.77
2023-01-13T07:05:50.479Z,3.97
2023-01-13T07:08:17.464Z,4.37
2023-01-13T07:10:45.980Z,4.17
2023-01-13T07:13:31.590Z,4.60
2023-01-13T07:16:02.051Z,4.70
2023-01-13T07:18:32.028Z,3.70
2023-01-13T07:21:03.006Z,4.57
2023-01-13T07:23:32.308Z,4.77
2023-01-13T07:26:00.441Z,3.80
2023-01-13T07:28:29.826Z,4.63
2023-01-13T07:30:57.846Z,3.00
2023-01-13T07:33:25.569Z,4.70
2023-01-13T07:35:57.767Z,4.40
2023-01-13T07:38:26.948Z,5.03
2023-01-13T07:40:54.412Z,4.23
2023-01-13T07:43:33.455Z,4.20
2023-01-13T07:46:04.786Z,4.10
2023-01-13T07:48:34.471Z,3.93
2023-01-13T07:51:03.345Z,3.87
2023-01-13T07:53:31.923Z,3.93
2023-01-13T07:56:00.435Z,3.50
2023-01-13T07:58:28.626Z,3.10
2023-01-13T08:00:56.581Z,3.50
2023-01-13T08:03:24.347Z,4.37
2023-01-13T08:05:51.844Z,3.80
2023-01-13T08:08:19.063Z,2.90
2023-01-13T08:10:47.334Z,3.30
2023-01-13T08:13:17.381Z,2.50
2023-01-13T08:15:46.016Z,2.93
2023-01-13T08:18:14.363Z,2.73
2023-01-13T08:20:41.540Z,3.23
2023-01-13T08:23:08.383Z,3.80
2023-01-13T08:25:35.651Z,2.50
2023-01-13T08:28:04.488Z,3.37
2023-01-13T08:30:31.510Z,3.07
2023-01-13T08:32:58.525Z,2.90
2023-01-13T08:35:25.414Z,2.07
2023-01-13T08:37:52.819Z,2.13
2023-01-13T08:40:20.931Z,2.80
2023-01-13T08:42:48.797Z,2.83
2023-01-13T08:45:17.149Z,2.30
2023-01-13T08:47:44.055Z,2.70
2023-01-13T08:50:11.849Z,2.97
2023-01-13T08:52:38.892Z,3.07
2023-01-13T08:55:07.729Z,3.10
2023-01-13T08:57:35.144Z,2.30
2023-01-13T09:00:04.904Z,4.43
2023-01-13T09:02:34.112Z,5.43
2023-01-13T09:05:03.762Z,4.23
2023-01-13T09:07:31.475Z,4.60
2023-01-13T09:09:58.577Z,8.73
2023-01-13T09:12:44.759Z,3.03
2023-01-13T09:15:12.490Z,2.70
2023-01-13T09:17:40.762Z,2.27
2023-01-13T09:20:09.850Z,2.60
2023-01-13T09:22:39.069Z,1.93
2023-01-13T09:25:06.737Z,2.47
2023-01-13T09:27:33.671Z,2.40
2023-01-13T09:30:01.653Z,3.07
2023-01-13T09:32:29.147Z,2.67
2023-01-13T09:34:59.961Z,2.60
2023-01-13T09:37:29.479Z,2.27
2023-01-13T09:39:56.851Z,3.20
2023-01-13T09:42:52.348Z,2.53
2023-01-13T09:45:25.307Z,2.80
2023-01-13T09:48:01.190Z,2.87
2023-01-13T09:50:44.415Z,2.77
2023-01-13T09:53:22.584Z,2.50
2023-01-13T09:55:49.815Z,2.77
2023-01-13T09:58:19.098Z,2.30
2023-01-13T10:01:05.855Z,3.37
2023-01-13T10:03:35.295Z,2.97
2023-01-13T10:06:13.466Z,3.33
2023-01-13T10:08:43.346Z,2.53
2023-01-13T10:11:34.907Z,3.60
2023-01-13T10:14:10.469Z,2.70
2023-01-13T10:16:46.675Z,3.00
2023-01-13T10:19:22.560Z,2.70
2023-01-13T10:22:22.783Z,3.43
2023-01-13T10:25:22.462Z,3.07
2023-01-13T10:27:54.145Z,2.90
2023-01-13T10:30:31.259Z,3.17
2023-01-13T10:33:01.018Z,3.60
2023-01-13T10:35:58.998Z,3.10
2023-01-13T10:38:35.913Z,2.70
2023-01-13T10:41:06.555Z,3.00
2023-01-13T10:43:33.631Z,3.17
2023-01-13T10:46:05.972Z,2.77
2023-01-13T10:48:38.147Z,3.37
2023-01-13T10:51:24.662Z,2.70
2023-01-13T10:53:58.005Z,3.00
2023-01-13T10:56:28.256Z,3.07
2023-01-13T10:59:14.285Z,2.63
2023-01-13T11:01:43.604Z,3.70
2023-01-13T11:04:30.466Z,2.63
2023-01-13T11:06:58.768Z,3.80
2023-01-13T11:09:30.427Z,2.63
2023-01-13T11:11:59.368Z,3.03
2023-01-13T11:14:39.282Z,2.90
2023-01-13T11:17:40.252Z,3.20
2023-01-13T11:20:23.366Z,3.10
2023-01-13T11:22:55.628Z,3.40
2023-01-13T11:25:32.236Z,3.13
2023-01-13T11:28:06.689Z,3.60
2023-01-13T11:30:42.419Z,3.17
2023-01-13T11:33:34.984Z,3.30
2023-01-13T11:36:12.012Z,3.60
2023-01-13T11:38:47.761Z,3.30
2023-01-13T11:41:31.349Z,2.57
2023-01-13T11:44:17.944Z,3.27
2023-01-13T11:46:48.723Z,3.40
2023-01-13T11:49:26.931Z,2.80
2023-01-13T11:52:03.404Z,2.90
2023-01-13T11:55:16.515Z,3.10
2023-01-13T11:58:50.553Z,2.43
2023-01-13T12:01:41.911Z,2.80
2023-01-13T12:04:25.976Z,2.80
2023-01-13T12:07:12.627Z,2.33
2023-01-13T12:09:59.550Z,2.70
2023-01-13T12:12:43.233Z,2.70
2023-01-13T12:15:47.532Z,2.73
2023-01-13T12:18:40.998Z,2.77
2023-01-13T12:21:23.030Z,2.70
2023-01-13T12:24:10.597Z,2.80
2023-01-13T12:26:44.738Z,2.70
2023-01-13T12:29:18.942Z,2.47
2023-01-13T12:31:50.064Z,3.10
2023-01-13T12:34:33.647Z,2.60
2023-01-13T12:37:15.579Z,3.60
2023-01-13T12:39:55.892Z,2.60
2023-01-13T12:42:52.565Z,2.93
2023-01-13T12:45:25.378Z,2.43
2023-01-13T12:47:55.056Z,2.57
2023-01-13T12:50:40.718Z,2.83
2023-01-13T12:53:34.935Z,2.90
2023-01-13T12:56:46.937Z,2.70
2023-01-13T12:59:48.748Z,2.60
2023-01-13T13:02:37.511Z,2.67
2023-01-13T13:05:55.355Z,2.77
2023-01-13T13:08:41.650Z,2.17
2023-01-13T13:11:54.002Z,2.53
2023-01-13T13:15:02.276Z,2.73
2023-01-13T13:17:41.391Z,2.67
2023-01-13T13:20:56.068Z,3.80
2023-01-13T13:23:50.040Z,3.13
2023-01-13T13:26:28.888Z,3.10
2023-01-13T13:29:23.791Z,2.70
2023-01-13T13:32:39.317Z,2.60
2023-01-13T13:35:28.976Z,2.13
2023-01-13T13:38:36.769Z,3.20
2023-01-13T13:41:32.084Z,2.50
2023-01-13T13:44:29.202Z,3.07
2023-01-13T13:47:00.686Z,2.10
2023-01-13T13:49:40.686Z,2.83
2023-01-13T13:52:17.781Z,3.07
2023-01-13T13:54:54.636Z,2.73
2023-01-13T13:57:30.839Z,3.50
2023-01-13T14:00:00.621Z,2.63
2023-01-13T14:02:31.228Z,2.13
2023-01-13T14:05:17.075Z,2.23
2023-01-13T14:07:47.199Z,2.53
2023-01-13T14:10:21.758Z,2.40
2023-01-13T14:12:48.759Z,2.37
2023-01-13T14:15:26.720Z,2.37
2023-01-13T14:17:54.439Z,2.20
2023-01-13T14:20:21.456Z,2.27
2023-01-13T14:22:49.303Z,2.00
2023-01-13T14:25:31.036Z,2.13
2023-01-13T14:28:17.096Z,2.93
2023-01-13T14:30:44.750Z,2.93
2023-01-13T14:33:17.900Z,2.63
2023-01-13T14:36:15.784Z,3.00
2023-01-13T14:38:45.928Z,3.03
2023-01-13T14:41:22.791Z,2.60
2023-01-13T14:43:54.067Z,3.07
2023-01-13T14:46:24.935Z,2.60
2023-01-13T14:49:00.964Z,2.77
2023-01-13T14:51:30.063Z,2.60
2023-01-13T14:53:58.377Z,2.73
2023-01-13T14:56:43.383Z,2.43
2023-01-13T14:59:47.626Z,2.10
2023-01-13T15:02:40.967Z,2.73
2023-01-13T15:05:34.216Z,2.57
2023-01-13T15:08:08.950Z,2.63
2023-01-13T15:10:45.672Z,2.03
2023-01-13T15:13:31.879Z,2.17
2023-01-13T15:16:02.296Z,1.77
2023-01-13T15:18:29.218Z,2.10
2023-01-13T15:20:56.269Z,1.90
2023-01-13T15:23:23.323Z,1.90
2023-01-13T15:25:50.396Z,1.83
2023-01-13T15:28:21.692Z,2.13
2023-01-13T15:30:50.505Z,2.20
2023-01-13T15:33:19.494Z,2.47
2023-01-13T15:35:49.959Z,2.93
2023-01-13T15:38:20.452Z,2.57
2023-01-13T15:40:50.072Z,2.20
2023-01-13T15:43:39.708Z,2.50
2023-01-13T15:46:33.407Z,1.97
2023-01-13T15:49:09.580Z,2.07
2023-01-13T15:51:36.593Z,2.43
2023-01-13T15:54:03.629Z,2.13
2023-01-13T15:56:30.799Z,1.70
2023-01-13T15:58:59.141Z,2.17
2023-01-13T16:01:26.129Z,2.17
2023-01-13T16:03:53.150Z,1.87
2023-01-13T16:06:27.604Z,2.20
2023-01-13T16:08:54.506Z,2.10
2023-01-13T16:11:21.419Z,2.07
2023-01-13T16:13:48.335Z,2.53
2023-01-13T16:16:21.688Z,1.93
2023-01-13T16:18:49.323Z,1.93
2023-01-13T16:21:16.884Z,2.30
2023-01-13T16:23:43.829Z,2.63
2023-01-13T16:26:20.493Z,1.83
2023-01-13T16:28:48.513Z,2.03
2023-01-13T16:31:22.820Z,2.27
2023-01-13T16:33:50.304Z,2.30
2023-01-13T16:36:19.984Z,1.97
2023-01-13T16:38:48.564Z,1.90
2023-01-13T16:41:15.743Z,2.13
2023-01-13T16:43:43.086Z,2.00
2023-01-13T16:46:24.728Z,2.63
2023-01-13T16:48:53.578Z,2.33
2023-01-13T16:51:21.758Z,2.70
2023-01-13T16:53:49.522Z,2.10
2023-01-13T16:56:24.457Z,3.00
2023-01-13T16:58:53.143Z,2.10
2023-01-13T17:01:25.596Z,2.37
2023-01-13T17:03:53.966Z,2.13
2023-01-13T17:06:27.414Z,2.73
2023-01-13T17:08:54.690Z,1.73
2023-01-13T17:11:22.061Z,2.03
2023-01-13T17:13:49.113Z,1.80
2023-01-13T17:16:22.064Z,2.43
2023-01-13T17:18:49.166Z,2.23
2023-01-13T17:21:16.882Z,1.80
2023-01-13T17:23:44.326Z,1.90
2023-01-13T17:26:32.101Z,2.20
2023-01-13T17:29:00.760Z,1.90
2023-01-13T17:31:29.802Z,2.50
2023-01-13T17:33:56.925Z,2.03
2023-01-13T17:36:25.548Z,1.90
2023-01-13T17:38:53.582Z,2.50
2023-01-13T17:41:20.741Z,2.20
2023-01-13T17:43:48.014Z,1.80
2023-01-13T17:46:19.744Z,2.93
2023-01-13T17:48:49.864Z,2.13
2023-01-13T17:51:18.674Z,2.20
2023-01-13T17:53:45.711Z,2.13
2023-01-13T17:56:15.238Z,1.40
2023-01-13T17:58:42.799Z,1.70
2023-01-13T18:01:14.058Z,1.37
2023-01-13T18:03:41.035Z,1.10
2023-01-13T18:06:16.659Z,0.93
2023-01-13T18:08:43.824Z,1.20
2023-01-13T18:11:10.794Z,1.63
2023-01-13T18:13:40.969Z,1.20
2023-01-13T18:16:11.868Z,1.13
2023-01-13T18:18:41.714Z,1.57
2023-01-13T18:21:36.706Z,1.87
2023-01-13T18:24:23.198Z,2.17
2023-01-13T18:27:08.758Z,1.50
2023-01-13T18:29:35.633Z,2.00
2023-01-13T18:32:02.523Z,2.00
2023-01-13T18:34:29.709Z,2.03
2023-01-13T18:36:58.161Z,2.43
2023-01-13T18:39:25.107Z,2.13
2023-01-13T18:42:10.963Z,2.07
2023-01-13T18:44:37.992Z,1.47
2023-01-13T18:47:05.100Z,2.30
2023-01-13T18:49:32.036Z,2.03
2023-01-13T18:52:00.569Z,1.70
2023-01-13T18:54:27.788Z,1.93
2023-01-13T18:56:56.028Z,1.83
2023-01-13T18:59:24.536Z,1.60
2023-01-13T19:01:52.049Z,2.03
2023-01-13T19:04:19.611Z,2.20
2023-01-13T19:06:50.760Z,1.67
2023-01-13T19:09:24.574Z,2.20
2023-01-13T19:11:52.087Z,2.57
2023-01-13T19:14:37.243Z,2.20
2023-01-13T19:17:09.290Z,1.97
2023-01-13T19:19:40.448Z,2.40
2023-01-13T19:22:08.419Z,1.47
2023-01-13T19:24:37.151Z,1.87
2023-01-13T19:27:04.467Z,2.27
2023-01-13T19:29:33.808Z,2.23
2023-01-13T19:32:01.137Z,2.47
2023-01-13T19:34:28.890Z,1.93
2023-01-13T19:36:55.870Z,2.17
2023-01-13T19:39:23.898Z,2.10
2023-01-13T19:42:11.476Z,1.73
2023-01-13T19:44:57.585Z,1.90
2023-01-13T19:47:24.645Z,2.00
2023-01-13T19:49:51.574Z,2.10
2023-01-13T19:52:18.535Z,2.00
2023-01-13T19:54:47.042Z,2.13
2023-01-13T19:57:15.704Z,2.90
2023-01-13T19:59:42.925Z,2.60
2023-01-13T20:02:15.383Z,2.17
2023-01-13T20:04:45.184Z,2.60
2023-01-13T20:07:13.687Z,2.57
2023-01-13T20:09:44.869Z,2.87
2023-01-13T20:12:17.850Z,3.10
2023-01-13T20:14:49.955Z,2.60
2023-01-13T20:17:20.989Z,2.23
2023-01-13T20:19:49.245Z,3.13
2023-01-13T20:22:16.152Z,2.47
2023-01-13T20:24:43.399Z,2.77
2023-01-13T20:27:10.360Z,2.53
2023-01-13T20:29:38.086Z,3.20
2023-01-13T20:32:06.455Z,2.73
2023-01-13T20:34:33.618Z,3.03
2023-01-13T20:37:00.818Z,2.83
2023-01-13T20:39:27.856Z,2.37
2023-01-13T20:42:14.148Z,2.97
2023-01-13T20:44:41.813Z,2.67
2023-01-13T20:47:10.107Z,2.43
2023-01-13T20:49:37.038Z,2.90
2023-01-13T20:52:09.495Z,3.03
2023-01-13T20:54:37.517Z,2.20
2023-01-13T20:57:07.684Z,2.53
2023-01-13T20:59:35.720Z,2.50
2023-01-13T21:02:03.585Z,2.40
2023-01-13T21:04:32.199Z,2.47
2023-01-13T21:06:59.437Z,2.17
2023-01-13T21:09:27.163Z,1.30
2023-01-13T21:12:13.280Z,1.70
2023-01-13T21:14:59.270Z,1.63
2023-01-13T21:17:45.437Z,1.67
2023-01-13T21:20:15.517Z,2.30
2023-01-13T21:22:45.091Z,1.57
2023-01-13T21:25:13.283Z,1.63
2023-01-13T21:27:41.644Z,2.20
2023-01-13T21:30:14.650Z,2.03
2023-01-13T21:32:43.579Z,2.00
2023-01-13T21:35:13.178Z,1.83
2023-01-13T21:37:42.337Z,2.17
2023-01-13T21:40:13.424Z,2.23
2023-01-13T21:43:04.071Z,2.90
2023-01-13T21:45:49.694Z,2.70
2023-01-13T21:48:16.597Z,2.50
2023-01-13T21:50:45.220Z,1.93
2023-01-13T21:53:12.129Z,2.70
2023-01-13T21:55:39.035Z,2.80
2023-01-13T21:58:11.481Z,2.13
2023-01-13T22:00:40.678Z,2.47
2023-01-13T22:03:09.802Z,2.37
2023-01-13T22:05:37.413Z,1.93
2023-01-13T22:08:06.960Z,2.60
2023-01-13T22:10:34.386Z,2.00
2023-01-13T22:13:23.198Z,2.47
2023-01-13T22:15:50.146Z,2.43
2023-01-13T22:18:18.112Z,2.00
2023-01-13T22:20:45.261Z,2.53
2023-01-13T22:23:13.740Z,2.33
2023-01-13T22:25:40.701Z,2.67
2023-01-13T22:28:09.139Z,2.27
2023-01-13T22:30:36.525Z,2.67
2023-01-13T22:33:03.700Z,2.30
2023-01-13T22:35:30.820Z,2.27
2023-01-13T22:37:58.513Z,2.30
2023-01-13T22:40:26.824Z,2.07
2023-01-13T22:42:53.691Z,1.60
2023-01-13T22:45:20.630Z,1.80
2023-01-13T22:47:49.490Z,1.63
2023-01-13T22:50:20.622Z,1.67
2023-01-13T22:52:47.618Z,1.80
2023-01-13T22:55:14.770Z,1.70
2023-01-13T22:57:47.967Z,1.50
2023-01-13T23:00:18.695Z,1.80
2023-01-13T23:02:45.726Z,1.87
2023-01-13T23:05:13.654Z,1.90
2023-01-13T23:07:40.989Z,1.60
2023-01-13T23:10:09.295Z,1.67
2023-01-13T23:12:36.326Z,2.07
2023-01-13T23:15:05.835Z,1.47
2023-01-13T23:17:32.797Z,1.70
2023-01-13T23:19:59.723Z,1.57
2023-01-13T23:22:26.760Z,1.90
2023-01-13T23:24:53.667Z,2.10
2023-01-13T23:27:20.562Z,1.87
2023-01-13T23:29:47.463Z,1.83
2023-01-13T23:32:15.699Z,1.63
2023-01-13T23:34:42.677Z,2.23
2023-01-13T23:37:09.582Z,1.90
2023-01-13T23:39:36.530Z,1.93
2023-01-13T23:42:04.824Z,1.80
2023-01-13T23:44:31.767Z,1.70
2023-01-13T23:46:58.824Z,1.77
2023-01-13T23:49:27.349Z,1.53
2023-01-13T23:51:54.360Z,1.93
2023-01-13T23:54:21.450Z,1.20
2023-01-13T23:56:52.364Z,1.23
2023-01-13T23:59:20.023Z,1.13
